sensor_id;sensor_type;location;lat;lon;timestamp;P1;durP1;ratioP1;P2;durP2;ratioP2
72127;SDS011;60000;51.030;7.024;2023-07-13T00:02:07;3.60;;;1.00;;
72127;SDS011;60000;51.030;7.024;2023-07-13T00:04:32;3.47;;;0.93;;
72127;SDS011;60000;51.030;7.024;2023-07-13T00:06:58;2.53;;;0.80;;
72127;SDS011;60000;51.030;7.024;2023-07-13T00:09:23;4.37;;;1.10;;
72127;SDS011;60000;51.030;7.024;2023-07-13T00:11:53;3.80;;;1.20;;
72127;SDS011;60000;51.030;7.024;2023-07-13T00:14:20;3.83;;;1.08;;
72127;SDS011;60000;51.030;7.024;2023-07-13T00:16:45;2.37;;;1.00;;
72127;SDS011;60000;51.030;7.024;2023-07-13T00:19:11;6.28;;;1.30;;
72127;SDS011;60000;51.030;7.024;2023-07-13T00:21:38;4.87;;;1.23;;
72127;SDS011;60000;51.030;7.024;2023-07-13T00:24:07;4.53;;;1.25;;
72127;SDS011;60000;51.030;7.024;2023-07-13T00:26:33;5.80;;;1.50;;
72127;SDS011;60000;51.030;7.024;2023-07-13T00:28:59;3.83;;;0.90;;
72127;SDS011;60000;51.030;7.024;2023-07-13T00:31:24;3.40;;;1.00;;
72127;SDS011;60000;51.030;7.024;2023-07-13T00:33:50;3.58;;;1.20;;
72127;SDS011;60000;51.030;7.024;2023-07-13T00:36:16;3.13;;;1.10;;
72127;SDS011;60000;51.030;7.024;2023-07-13T00:38:42;3.90;;;1.10;;
72127;SDS011;60000;51.030;7.024;2023-07-13T00:41:08;3.73;;;1.07;;
72127;SDS011;60000;51.030;7.024;2023-07-13T00:43:34;3.22;;;1.08;;
72127;SDS011;60000;51.030;7.024;2023-07-13T00:46:10;3.40;;;1.00;;
72127;SDS011;60000;51.030;7.024;2023-07-13T00:48:38;3.30;;;1.00;;
72127;SDS011;60000;51.030;7.024;2023-07-13T00:51:05;4.47;;;1.30;;
72127;SDS011;60000;51.030;7.024;2023-07-13T00:53:30;4.83;;;1.37;;
72127;SDS011;60000;51.030;7.024;2023-07-13T00:55:58;5.10;;;1.52;;
72127;SDS011;60000;51.030;7.024;2023-07-13T00:58:24;4.90;;;1.50;;
72127;SDS011;60000;51.030;7.024;2023-07-13T01:00:51;5.50;;;1.33;;
72127;SDS011;60000;51.030;7.024;2023-07-13T01:03:16;4.97;;;1.53;;
72127;SDS011;60000;51.030;7.024;2023-07-13T01:05:42;5.55;;;1.17;;
72127;SDS011;60000;51.030;7.024;2023-07-13T01:08:08;5.93;;;1.27;;
72127;SDS011;60000;51.030;7.024;2023-07-13T01:10:34;4.70;;;1.23;;
72127;SDS011;60000;51.030;7.024;2023-07-13T01:13:04;5.70;;;1.25;;
72127;SDS011;60000;51.030;7.024;2023-07-13T01:15:40;6.07;;;1.50;;
72127;SDS011;60000;51.030;7.024;2023-07-13T01:18:14;5.15;;;1.17;;
72127;SDS011;60000;51.030;7.024;2023-07-13T01:20:57;6.53;;;1.15;;
72127;SDS011;60000;51.030;7.024;2023-07-13T01:23:29;6.25;;;1.30;;
72127;SDS011;60000;51.030;7.024;2023-07-13T01:25:56;4.15;;;1.05;;
72127;SDS011;60000;51.030;7.024;2023-07-13T01:28:22;5.82;;;1.20;;
72127;SDS011;60000;51.030;7.024;2023-07-13T01:30:52;4.40;;;1.08;;
72127;SDS011;60000;51.030;7.024;2023-07-13T01:33:18;6.53;;;1.30;;
72127;SDS011;60000;51.030;7.024;2023-07-13T01:35:44;4.80;;;1.07;;
72127;SDS011;60000;51.030;7.024;2023-07-13T01:38:11;5.03;;;1.35;;
72127;SDS011;60000;51.030;7.024;2023-07-13T01:40:39;6.82;;;0.93;;
72127;SDS011;60000;51.030;7.024;2023-07-13T01:43:04;4.73;;;1.00;;
72127;SDS011;60000;51.030;7.024;2023-07-13T01:45:30;4.70;;;1.10;;
72127;SDS011;60000;51.030;7.024;2023-07-13T01:47:55;4.43;;;0.90;;
72127;SDS011;60000;51.030;7.024;2023-07-13T01:50:21;3.40;;;1.23;;
72127;SDS011;60000;51.030;7.024;2023-07-13T01:52:46;3.10;;;0.73;;
72127;SDS011;60000;51.030;7.024;2023-07-13T01:55:11;3.53;;;0.93;;
72127;SDS011;60000;51.030;7.024;2023-07-13T01:57:37;3.20;;;0.70;;
72127;SDS011;60000;51.030;7.024;2023-07-13T02:00:03;3.72;;;1.00;;
72127;SDS011;60000;51.030;7.024;2023-07-13T02:02:29;2.00;;;0.70;;
72127;SDS011;60000;51.030;7.024;2023-07-13T02:04:55;4.75;;;1.00;;
72127;SDS011;60000;51.030;7.024;2023-07-13T02:07:21;6.40;;;1.03;;
72127;SDS011;60000;51.030;7.024;2023-07-13T02:09:46;6.15;;;1.25;;
72127;SDS011;60000;51.030;7.024;2023-07-13T02:12:12;4.80;;;1.00;;
72127;SDS011;60000;51.030;7.024;2023-07-13T02:14:37;6.60;;;1.27;;
72127;SDS011;60000;51.030;7.024;2023-07-13T02:17:03;5.18;;;1.20;;
72127;SDS011;60000;51.030;7.024;2023-07-13T02:19:29;6.33;;;1.30;;
72127;SDS011;60000;51.030;7.024;2023-07-13T02:21:54;6.07;;;1.13;;
72127;SDS011;60000;51.030;7.024;2023-07-13T02:24:19;3.47;;;1.00;;
72127;SDS011;60000;51.030;7.024;2023-07-13T02:26:45;4.95;;;1.08;;
72127;SDS011;60000;51.030;7.024;2023-07-13T02:29:11;7.18;;;1.50;;
72127;SDS011;60000;51.030;7.024;2023-07-13T02:31:37;6.93;;;1.13;;
72127;SDS011;60000;51.030;7.024;2023-07-13T02:34:02;5.13;;;1.00;;
72127;SDS011;60000;51.030;7.024;2023-07-13T02:36:29;4.47;;;1.20;;
72127;SDS011;60000;51.030;7.024;2023-07-13T02:38:55;3.40;;;0.95;;
72127;SDS011;60000;51.030;7.024;2023-07-13T02:41:20;3.53;;;1.10;;
72127;SDS011;60000;51.030;7.024;2023-07-13T02:43:45;5.57;;;1.03;;
72127;SDS011;60000;51.030;7.024;2023-07-13T02:46:11;4.93;;;1.43;;
72127;SDS011;60000;51.030;7.024;2023-07-13T02:48:37;3.72;;;1.05;;
72127;SDS011;60000;51.030;7.024;2023-07-13T02:51:03;4.68;;;1.10;;
72127;SDS011;60000;51.030;7.024;2023-07-13T02:53:29;2.42;;;0.80;;
72127;SDS011;60000;51.030;7.024;2023-07-13T02:55:54;4.40;;;1.00;;
72127;SDS011;60000;51.030;7.024;2023-07-13T02:58:19;2.60;;;0.70;;
72127;SDS011;60000;51.030;7.024;2023-07-13T03:00:46;2.78;;;0.70;;
72127;SDS011;60000;51.030;7.024;2023-07-13T03:03:12;3.58;;;0.88;;
72127;SDS011;60000;51.030;7.024;2023-07-13T03:05:40;2.35;;;0.80;;
72127;SDS011;60000;51.030;7.024;2023-07-13T03:08:07;3.40;;;1.10;;
72127;SDS011;60000;51.030;7.024;2023-07-13T03:10:32;3.00;;;0.90;;
72127;SDS011;60000;51.030;7.024;2023-07-13T03:12:58;2.20;;;0.70;;
72127;SDS011;60000;51.030;7.024;2023-07-13T03:15:23;2.30;;;0.73;;
72127;SDS011;60000;51.030;7.024;2023-07-13T03:17:49;2.03;;;0.70;;
72127;SDS011;60000;51.030;7.024;2023-07-13T03:20:14;4.07;;;1.10;;
72127;SDS011;60000;51.030;7.024;2023-07-13T03:22:40;4.67;;;1.00;;
72127;SDS011;60000;51.030;7.024;2023-07-13T03:25:05;2.53;;;0.77;;
72127;SDS011;60000;51.030;7.024;2023-07-13T03:27:31;4.70;;;0.83;;
72127;SDS011;60000;51.030;7.024;2023-07-13T03:29:56;4.57;;;1.00;;
72127;SDS011;60000;51.030;7.024;2023-07-13T03:32:21;4.60;;;1.25;;
72127;SDS011;60000;51.030;7.024;2023-07-13T03:34:46;3.13;;;0.90;;
72127;SDS011;60000;51.030;7.024;2023-07-13T03:37:12;5.67;;;1.10;;
72127;SDS011;60000;51.030;7.024;2023-07-13T03:39:37;3.30;;;1.00;;
72127;SDS011;60000;51.030;7.024;2023-07-13T03:42:03;4.07;;;1.00;;
72127;SDS011;60000;51.030;7.024;2023-07-13T03:44:28;3.38;;;1.00;;
72127;SDS011;60000;51.030;7.024;2023-07-13T03:46:53;3.63;;;0.95;;
72127;SDS011;60000;51.030;7.024;2023-07-13T03:49:19;2.77;;;0.90;;
72127;SDS011;60000;51.030;7.024;2023-07-13T03:51:44;5.57;;;1.83;;
72127;SDS011;60000;51.030;7.024;2023-07-13T03:54:09;7.47;;;1.60;;
72127;SDS011;60000;51.030;7.024;2023-07-13T03:56:35;6.30;;;1.47;;
72127;SDS011;60000;51.030;7.024;2023-07-13T03:59:00;6.53;;;1.10;;
72127;SDS011;60000;51.030;7.024;2023-07-13T04:01:26;8.23;;;1.42;;
72127;SDS011;60000;51.030;7.024;2023-07-13T04:03:51;7.27;;;1.50;;
72127;SDS011;60000;51.030;7.024;2023-07-13T04:06:22;5.35;;;1.13;;
72127;SDS011;60000;51.030;7.024;2023-07-13T04:08:58;3.78;;;1.10;;
72127;SDS011;60000;51.030;7.024;2023-07-13T04:11:25;5.80;;;1.15;;
72127;SDS011;60000;51.030;7.024;2023-07-13T04:13:54;3.08;;;1.08;;
72127;SDS011;60000;51.030;7.024;2023-07-13T04:16:20;4.45;;;1.10;;
72127;SDS011;60000;51.030;7.024;2023-07-13T04:18:46;4.40;;;1.20;;
72127;SDS011;60000;51.030;7.024;2023-07-13T04:21:13;4.43;;;1.20;;
72127;SDS011;60000;51.030;7.024;2023-07-13T04:23:39;4.60;;;1.15;;
72127;SDS011;60000;51.030;7.024;2023-07-13T04:26:05;4.28;;;1.00;;
72127;SDS011;60000;51.030;7.024;2023-07-13T04:28:31;5.00;;;1.30;;
72127;SDS011;60000;51.030;7.024;2023-07-13T04:30:56;4.25;;;1.08;;
72127;SDS011;60000;51.030;7.024;2023-07-13T04:33:22;4.57;;;1.30;;
72127;SDS011;60000;51.030;7.024;2023-07-13T04:35:48;5.93;;;1.10;;
72127;SDS011;60000;51.030;7.024;2023-07-13T04:38:26;4.10;;;0.93;;
72127;SDS011;60000;51.030;7.024;2023-07-13T04:40:57;5.25;;;1.25;;
72127;SDS011;60000;51.030;7.024;2023-07-13T04:43:24;3.10;;;1.00;;
72127;SDS011;60000;51.030;7.024;2023-07-13T04:45:51;4.17;;;1.17;;
72127;SDS011;60000;51.030;7.024;2023-07-13T04:48:16;7.05;;;1.30;;
72127;SDS011;60000;51.030;7.024;2023-07-13T04:50:42;5.43;;;1.10;;
72127;SDS011;60000;51.030;7.024;2023-07-13T04:53:08;5.80;;;1.40;;
72127;SDS011;60000;51.030;7.024;2023-07-13T04:55:34;5.45;;;1.13;;
72127;SDS011;60000;51.030;7.024;2023-07-13T04:57:59;5.30;;;1.20;;
72127;SDS011;60000;51.030;7.024;2023-07-13T05:00:25;8.53;;;1.50;;
72127;SDS011;60000;51.030;7.024;2023-07-13T05:02:51;6.78;;;1.45;;
72127;SDS011;60000;51.030;7.024;2023-07-13T05:05:17;4.57;;;1.10;;
72127;SDS011;60000;51.030;7.024;2023-07-13T05:07:42;5.50;;;1.20;;
72127;SDS011;60000;51.030;7.024;2023-07-13T05:10:08;6.38;;;1.10;;
72127;SDS011;60000;51.030;7.024;2023-07-13T05:12:33;6.60;;;1.13;;
72127;SDS011;60000;51.030;7.024;2023-07-13T05:14:59;6.97;;;1.20;;
72127;SDS011;60000;51.030;7.024;2023-07-13T05:17:24;6.07;;;1.10;;
72127;SDS011;60000;51.030;7.024;2023-07-13T05:19:49;6.10;;;1.48;;
72127;SDS011;60000;51.030;7.024;2023-07-13T05:22:15;5.17;;;1.30;;
72127;SDS011;60000;51.030;7.024;2023-07-13T05:24:40;4.23;;;1.00;;
72127;SDS011;60000;51.030;7.024;2023-07-13T05:27:05;10.00;;;1.40;;
72127;SDS011;60000;51.030;7.024;2023-07-13T05:29:31;9.33;;;1.23;;
72127;SDS011;60000;51.030;7.024;2023-07-13T05:31:56;5.67;;;1.13;;
72127;SDS011;60000;51.030;7.024;2023-07-13T05:34:22;5.63;;;1.10;;
72127;SDS011;60000;51.030;7.024;2023-07-13T05:36:47;7.33;;;2.50;;
72127;SDS011;60000;51.030;7.024;2023-07-13T05:39:14;5.60;;;1.15;;
72127;SDS011;60000;51.030;7.024;2023-07-13T05:41:39;9.03;;;1.50;;
72127;SDS011;60000;51.030;7.024;2023-07-13T05:44:04;8.70;;;1.40;;
72127;SDS011;60000;51.030;7.024;2023-07-13T05:46:29;6.63;;;1.60;;
72127;SDS011;60000;51.030;7.024;2023-07-13T05:48:55;6.30;;;1.23;;
72127;SDS011;60000;51.030;7.024;2023-07-13T05:51:21;9.50;;;1.40;;
72127;SDS011;60000;51.030;7.024;2023-07-13T05:53:46;6.43;;;1.17;;
72127;SDS011;60000;51.030;7.024;2023-07-13T05:56:11;7.45;;;1.40;;
72127;SDS011;60000;51.030;7.024;2023-07-13T05:58:37;4.87;;;1.40;;
72127;SDS011;60000;51.030;7.024;2023-07-13T06:01:08;8.77;;;1.60;;
72127;SDS011;60000;51.030;7.024;2023-07-13T06:03:36;7.72;;;1.48;;
72127;SDS011;60000;51.030;7.024;2023-07-13T06:06:05;6.88;;;1.40;;
72127;SDS011;60000;51.030;7.024;2023-07-13T06:08:32;7.93;;;1.58;;
72127;SDS011;60000;51.030;7.024;2023-07-13T06:11:01;6.60;;;1.43;;
72127;SDS011;60000;51.030;7.024;2023-07-13T06:13:31;6.93;;;1.33;;
72127;SDS011;60000;51.030;7.024;2023-07-13T06:15:56;8.93;;;1.70;;
72127;SDS011;60000;51.030;7.024;2023-07-13T06:18:21;8.50;;;1.60;;
72127;SDS011;60000;51.030;7.024;2023-07-13T06:20:47;9.27;;;1.70;;
72127;SDS011;60000;51.030;7.024;2023-07-13T06:23:12;7.67;;;1.60;;
72127;SDS011;60000;51.030;7.024;2023-07-13T06:25:37;12.00;;;1.70;;
72127;SDS011;60000;51.030;7.024;2023-07-13T06:28:02;7.67;;;1.70;;
72127;SDS011;60000;51.030;7.024;2023-07-13T06:30:28;5.60;;;1.57;;
72127;SDS011;60000;51.030;7.024;2023-07-13T06:32:53;6.83;;;1.73;;
72127;SDS011;60000;51.030;7.024;2023-07-13T06:35:19;5.07;;;1.40;;
72127;SDS011;60000;51.030;7.024;2023-07-13T06:37:44;4.87;;;1.40;;
72127;SDS011;60000;51.030;7.024;2023-07-13T06:40:09;8.87;;;1.57;;
72127;SDS011;60000;51.030;7.024;2023-07-13T06:42:35;9.40;;;1.40;;
72127;SDS011;60000;51.030;7.024;2023-07-13T06:45:01;6.97;;;1.50;;
72127;SDS011;60000;51.030;7.024;2023-07-13T06:47:26;7.47;;;1.40;;
72127;SDS011;60000;51.030;7.024;2023-07-13T06:49:52;6.03;;;1.53;;
72127;SDS011;60000;51.030;7.024;2023-07-13T06:52:17;8.02;;;1.73;;
72127;SDS011;60000;51.030;7.024;2023-07-13T06:54:42;8.97;;;1.90;;
72127;SDS011;60000;51.030;7.024;2023-07-13T06:57:08;10.00;;;1.60;;
72127;SDS011;60000;51.030;7.024;2023-07-13T06:59:33;8.07;;;1.67;;
72127;SDS011;60000;51.030;7.024;2023-07-13T07:01:59;8.20;;;1.73;;
72127;SDS011;60000;51.030;7.024;2023-07-13T07:04:24;9.63;;;1.60;;
72127;SDS011;60000;51.030;7.024;2023-07-13T07:06:49;9.33;;;1.80;;
72127;SDS011;60000;51.030;7.024;2023-07-13T07:09:15;6.93;;;1.70;;
72127;SDS011;60000;51.030;7.024;2023-07-13T07:11:41;7.03;;;1.65;;
72127;SDS011;60000;51.030;7.024;2023-07-13T07:14:07;5.40;;;1.47;;
72127;SDS011;60000;51.030;7.024;2023-07-13T07:16:32;9.25;;;1.65;;
72127;SDS011;60000;51.030;7.024;2023-07-13T07:18:58;6.67;;;1.50;;
72127;SDS011;60000;51.030;7.024;2023-07-13T07:21:23;8.20;;;1.70;;
72127;SDS011;60000;51.030;7.024;2023-07-13T07:23:48;6.97;;;1.77;;
72127;SDS011;60000;51.030;7.024;2023-07-13T07:26:14;6.37;;;1.97;;
72127;SDS011;60000;51.030;7.024;2023-07-13T07:28:39;8.40;;;1.70;;
72127;SDS011;60000;51.030;7.024;2023-07-13T07:31:05;8.33;;;2.50;;
72127;SDS011;60000;51.030;7.024;2023-07-13T07:33:32;6.80;;;1.60;;
72127;SDS011;60000;51.030;7.024;2023-07-13T07:36:00;5.70;;;1.40;;
72127;SDS011;60000;51.030;7.024;2023-07-13T07:38:26;8.43;;;1.70;;
72127;SDS011;60000;51.030;7.024;2023-07-13T07:40:52;7.57;;;1.80;;
72127;SDS011;60000;51.030;7.024;2023-07-13T07:43:17;10.15;;;1.70;;
72127;SDS011;60000;51.030;7.024;2023-07-13T07:45:43;6.67;;;1.70;;
72127;SDS011;60000;51.030;7.024;2023-07-13T07:48:10;8.75;;;1.60;;
72127;SDS011;60000;51.030;7.024;2023-07-13T07:50:35;8.17;;;1.90;;
72127;SDS011;60000;51.030;7.024;2023-07-13T07:53:02;9.13;;;1.80;;
72127;SDS011;60000;51.030;7.024;2023-07-13T07:55:28;8.18;;;1.63;;
72127;SDS011;60000;51.030;7.024;2023-07-13T07:57:53;10.83;;;2.10;;
72127;SDS011;60000;51.030;7.024;2023-07-13T08:00:19;8.63;;;2.05;;
72127;SDS011;60000;51.030;7.024;2023-07-13T08:02:45;8.85;;;1.60;;
72127;SDS011;60000;51.030;7.024;2023-07-13T08:05:10;7.33;;;1.37;;
72127;SDS011;60000;51.030;7.024;2023-07-13T08:07:36;6.83;;;1.70;;
72127;SDS011;60000;51.030;7.024;2023-07-13T08:10:03;11.10;;;2.30;;
72127;SDS011;60000;51.030;7.024;2023-07-13T08:12:29;10.07;;;2.08;;
72127;SDS011;60000;51.030;7.024;2023-07-13T08:14:55;8.43;;;1.80;;
72127;SDS011;60000;51.030;7.024;2023-07-13T08:17:22;7.72;;;1.60;;
72127;SDS011;60000;51.030;7.024;2023-07-13T08:19:49;6.80;;;1.55;;
72127;SDS011;60000;51.030;7.024;2023-07-13T08:22:14;10.87;;;1.70;;
72127;SDS011;60000;51.030;7.024;2023-07-13T08:24:40;9.23;;;1.77;;
72127;SDS011;60000;51.030;7.024;2023-07-13T08:27:07;9.43;;;2.00;;
72127;SDS011;60000;51.030;7.024;2023-07-13T08:29:32;10.27;;;1.70;;
72127;SDS011;60000;51.030;7.024;2023-07-13T08:31:58;9.07;;;1.90;;
72127;SDS011;60000;51.030;7.024;2023-07-13T08:34:23;9.43;;;1.87;;
72127;SDS011;60000;51.030;7.024;2023-07-13T08:36:48;7.20;;;1.90;;
72127;SDS011;60000;51.030;7.024;2023-07-13T08:39:14;6.10;;;1.53;;
72127;SDS011;60000;51.030;7.024;2023-07-13T08:41:39;9.53;;;1.87;;
72127;SDS011;60000;51.030;7.024;2023-07-13T08:44:05;7.43;;;1.70;;
72127;SDS011;60000;51.030;7.024;2023-07-13T08:46:41;9.95;;;2.30;;
72127;SDS011;60000;51.030;7.024;2023-07-13T08:49:15;8.20;;;1.75;;
72127;SDS011;60000;51.030;7.024;2023-07-13T08:51:46;7.68;;;1.70;;
72127;SDS011;60000;51.030;7.024;2023-07-13T08:54:28;7.95;;;1.65;;
72127;SDS011;60000;51.030;7.024;2023-07-13T08:57:09;6.20;;;1.70;;
72127;SDS011;60000;51.030;7.024;2023-07-13T08:59:38;7.50;;;1.55;;
72127;SDS011;60000;51.030;7.024;2023-07-13T09:02:20;7.05;;;1.63;;
72127;SDS011;60000;51.030;7.024;2023-07-13T09:04:56;11.05;;;2.10;;
72127;SDS011;60000;51.030;7.024;2023-07-13T09:07:48;7.15;;;1.60;;
72127;SDS011;60000;51.030;7.024;2023-07-13T09:10:28;9.03;;;1.87;;
72127;SDS011;60000;51.030;7.024;2023-07-13T09:15:41;9.30;;;1.50;;
72127;SDS011;60000;51.030;7.024;2023-07-13T09:18:11;8.18;;;1.88;;
72127;SDS011;60000;51.030;7.024;2023-07-13T09:20:48;7.20;;;1.42;;
72127;SDS011;60000;51.030;7.024;2023-07-13T09:23:17;8.73;;;1.90;;
72127;SDS011;60000;51.030;7.024;2023-07-13T09:25:47;6.53;;;1.50;;
72127;SDS011;60000;51.030;7.024;2023-07-13T09:28:26;6.18;;;1.48;;
72127;SDS011;60000;51.030;7.024;2023-07-13T09:30:58;8.95;;;1.30;;
72127;SDS011;60000;51.030;7.024;2023-07-13T09:33:28;4.18;;;1.38;;
72127;SDS011;60000;51.030;7.024;2023-07-13T09:35:55;9.17;;;1.70;;
72127;SDS011;60000;51.030;7.024;2023-07-13T09:38:23;9.93;;;1.77;;
72127;SDS011;60000;51.030;7.024;2023-07-13T09:41:05;7.32;;;1.45;;
72127;SDS011;60000;51.030;7.024;2023-07-13T09:43:43;8.63;;;1.73;;
72127;SDS011;60000;51.030;7.024;2023-07-13T09:46:26;7.45;;;1.90;;
72127;SDS011;60000;51.030;7.024;2023-07-13T09:48:51;7.80;;;1.90;;
72127;SDS011;60000;51.030;7.024;2023-07-13T09:51:16;5.00;;;1.30;;
72127;SDS011;60000;51.030;7.024;2023-07-13T09:53:42;4.30;;;1.20;;
72127;SDS011;60000;51.030;7.024;2023-07-13T09:56:29;6.88;;;1.38;;
72127;SDS011;60000;51.030;7.024;2023-07-13T09:58:54;5.03;;;1.20;;
72127;SDS011;60000;51.030;7.024;2023-07-13T10:01:34;5.73;;;1.70;;
72127;SDS011;60000;51.030;7.024;2023-07-13T10:04:01;9.05;;;1.70;;
72127;SDS011;60000;51.030;7.024;2023-07-13T10:06:27;5.90;;;1.30;;
72127;SDS011;60000;51.030;7.024;2023-07-13T10:08:52;5.30;;;1.40;;
72127;SDS011;60000;51.030;7.024;2023-07-13T10:11:28;9.00;;;1.50;;
72127;SDS011;60000;51.030;7.024;2023-07-13T10:13:55;5.82;;;1.30;;
72127;SDS011;60000;51.030;7.024;2023-07-13T10:16:22;8.73;;;1.52;;
72127;SDS011;60000;51.030;7.024;2023-07-13T10:18:51;7.23;;;1.90;;
72127;SDS011;60000;51.030;7.024;2023-07-13T10:21:22;6.00;;;1.58;;
72127;SDS011;60000;51.030;7.024;2023-07-13T10:24:02;7.75;;;1.60;;
72127;SDS011;60000;51.030;7.024;2023-07-13T10:29:55;7.97;;;1.35;;
72127;SDS011;60000;51.030;7.024;2023-07-13T10:32:26;5.93;;;1.40;;
72127;SDS011;60000;51.030;7.024;2023-07-13T10:34:52;7.07;;;1.60;;
72127;SDS011;60000;51.030;7.024;2023-07-13T10:37:21;6.70;;;1.60;;
72127;SDS011;60000;51.030;7.024;2023-07-13T10:39:50;6.17;;;1.67;;
72127;SDS011;60000;51.030;7.024;2023-07-13T10:42:25;7.57;;;1.50;;
72127;SDS011;60000;51.030;7.024;2023-07-13T10:44:54;7.93;;;1.50;;
72127;SDS011;60000;51.030;7.024;2023-07-13T10:47:19;6.27;;;1.60;;
72127;SDS011;60000;51.030;7.024;2023-07-13T10:49:45;12.70;;;2.97;;
72127;SDS011;60000;51.030;7.024;2023-07-13T10:55:04;6.63;;;1.60;;
72127;SDS011;60000;51.030;7.024;2023-07-13T10:57:32;6.70;;;1.80;;
72127;SDS011;60000;51.030;7.024;2023-07-13T11:02:38;6.55;;;1.70;;
72127;SDS011;60000;51.030;7.024;2023-07-13T11:05:16;6.53;;;1.77;;
72127;SDS011;60000;51.030;7.024;2023-07-13T11:18:49;7.10;;;1.90;;
72127;SDS011;60000;51.030;7.024;2023-07-13T11:23:53;6.90;;;1.60;;
72127;SDS011;60000;51.030;7.024;2023-07-13T11:31:53;6.57;;;1.50;;
72127;SDS011;60000;51.030;7.024;2023-07-13T11:34:36;9.90;;;1.77;;
72127;SDS011;60000;51.030;7.024;2023-07-13T11:37:03;6.37;;;1.80;;
72127;SDS011;60000;51.030;7.024;2023-07-13T11:39:41;5.95;;;1.50;;
72127;SDS011;60000;51.030;7.024;2023-07-13T11:42:10;6.95;;;1.73;;
72127;SDS011;60000;51.030;7.024;2023-07-13T11:44:42;6.70;;;1.50;;
72127;SDS011;60000;51.030;7.024;2023-07-13T11:47:14;5.40;;;1.40;;
72127;SDS011;60000;51.030;7.024;2023-07-13T11:49:53;6.40;;;1.97;;
72127;SDS011;60000;51.030;7.024;2023-07-13T11:52:35;9.02;;;1.77;;
72127;SDS011;60000;51.030;7.024;2023-07-13T11:55:03;4.78;;;1.40;;
72127;SDS011;60000;51.030;7.024;2023-07-13T11:57:40;5.38;;;1.55;;
72127;SDS011;60000;51.030;7.024;2023-07-13T12:00:13;5.97;;;1.65;;
72127;SDS011;60000;51.030;7.024;2023-07-13T12:02:45;9.73;;;1.87;;
72127;SDS011;60000;51.030;7.024;2023-07-13T12:05:13;7.00;;;1.75;;
72127;SDS011;60000;51.030;7.024;2023-07-13T12:07:40;8.38;;;1.70;;
72127;SDS011;60000;51.030;7.024;2023-07-13T12:10:26;5.95;;;1.60;;
72127;SDS011;60000;51.030;7.024;2023-07-13T12:13:03;8.30;;;2.08;;
72127;SDS011;60000;51.030;7.024;2023-07-13T12:15:43;8.20;;;1.70;;
72127;SDS011;60000;51.030;7.024;2023-07-13T12:18:22;5.65;;;1.98;;
72127;SDS011;60000;51.030;7.024;2023-07-13T12:20:49;8.18;;;2.25;;
72127;SDS011;60000;51.030;7.024;2023-07-13T12:23:22;9.68;;;2.92;;
72127;SDS011;60000;51.030;7.024;2023-07-13T12:25:50;6.57;;;1.75;;
72127;SDS011;60000;51.030;7.024;2023-07-13T12:28:29;4.83;;;1.40;;
72127;SDS011;60000;51.030;7.024;2023-07-13T12:31:07;7.00;;;1.98;;
72127;SDS011;60000;51.030;7.024;2023-07-13T12:33:47;6.28;;;1.85;;
72127;SDS011;60000;51.030;7.024;2023-07-13T12:36:12;3.87;;;1.60;;
72127;SDS011;60000;51.030;7.024;2023-07-13T12:38:38;7.37;;;1.83;;
72127;SDS011;60000;51.030;7.024;2023-07-13T12:41:03;5.32;;;1.42;;
72127;SDS011;60000;51.030;7.024;2023-07-13T12:43:32;7.17;;;1.90;;
72127;SDS011;60000;51.030;7.024;2023-07-13T12:46:03;7.07;;;1.70;;
72127;SDS011;60000;51.030;7.024;2023-07-13T12:48:40;7.40;;;1.90;;
72127;SDS011;60000;51.030;7.024;2023-07-13T12:51:09;7.00;;;1.50;;
72127;SDS011;60000;51.030;7.024;2023-07-13T12:53:38;5.72;;;1.30;;
72127;SDS011;60000;51.030;7.024;2023-07-13T12:56:08;7.17;;;1.70;;
72127;SDS011;60000;51.030;7.024;2023-07-13T12:58:43;5.68;;;1.58;;
72127;SDS011;60000;51.030;7.024;2023-07-13T13:01:11;7.78;;;1.70;;
72127;SDS011;60000;51.030;7.024;2023-07-13T13:03:39;10.00;;;1.95;;
72127;SDS011;60000;51.030;7.024;2023-07-13T13:08:47;4.93;;;1.30;;
72127;SDS011;60000;51.030;7.024;2023-07-13T13:11:15;6.25;;;1.70;;
72127;SDS011;60000;51.030;7.024;2023-07-13T13:13:41;6.65;;;1.63;;
72127;SDS011;60000;51.030;7.024;2023-07-13T13:21:47;5.47;;;1.63;;
72127;SDS011;60000;51.030;7.024;2023-07-13T13:24:16;6.80;;;1.20;;
72127;SDS011;60000;51.030;7.024;2023-07-13T13:26:43;5.75;;;1.48;;
72127;SDS011;60000;51.030;7.024;2023-07-13T13:29:14;7.65;;;1.60;;
72127;SDS011;60000;51.030;7.024;2023-07-13T13:31:41;4.90;;;1.48;;
72127;SDS011;60000;51.030;7.024;2023-07-13T13:34:08;4.43;;;1.40;;
72127;SDS011;60000;51.030;7.024;2023-07-13T13:36:34;4.97;;;1.40;;
72127;SDS011;60000;51.030;7.024;2023-07-13T13:39:00;4.83;;;1.30;;
72127;SDS011;60000;51.030;7.024;2023-07-13T13:41:27;6.18;;;1.80;;
72127;SDS011;60000;51.030;7.024;2023-07-13T13:43:52;7.35;;;1.77;;
72127;SDS011;60000;51.030;7.024;2023-07-13T13:46:21;4.30;;;1.40;;
72127;SDS011;60000;51.030;7.024;2023-07-13T13:48:50;5.97;;;1.50;;
72127;SDS011;60000;51.030;7.024;2023-07-13T13:51:17;7.78;;;1.98;;
72127;SDS011;60000;51.030;7.024;2023-07-13T13:53:44;4.43;;;1.53;;
72127;SDS011;60000;51.030;7.024;2023-07-13T13:56:11;5.78;;;1.48;;
72127;SDS011;60000;51.030;7.024;2023-07-13T13:58:37;6.13;;;1.20;;
72127;SDS011;60000;51.030;7.024;2023-07-13T14:01:02;5.60;;;1.50;;
72127;SDS011;60000;51.030;7.024;2023-07-13T14:03:31;6.55;;;1.50;;
72127;SDS011;60000;51.030;7.024;2023-07-13T14:05:56;6.23;;;1.50;;
72127;SDS011;60000;51.030;7.024;2023-07-13T14:08:22;7.15;;;1.50;;
72127;SDS011;60000;51.030;7.024;2023-07-13T14:10:48;7.70;;;1.33;;
72127;SDS011;60000;51.030;7.024;2023-07-13T14:13:24;7.45;;;1.67;;
72127;SDS011;60000;51.030;7.024;2023-07-13T14:15:53;6.30;;;1.20;;
72127;SDS011;60000;51.030;7.024;2023-07-13T14:18:19;5.15;;;1.42;;
72127;SDS011;60000;51.030;7.024;2023-07-13T14:20:45;7.53;;;1.63;;
72127;SDS011;60000;51.030;7.024;2023-07-13T14:23:15;6.47;;;1.30;;
72127;SDS011;60000;51.030;7.024;2023-07-13T14:25:41;5.65;;;1.38;;
72127;SDS011;60000;51.030;7.024;2023-07-13T14:28:15;5.17;;;1.33;;
72127;SDS011;60000;51.030;7.024;2023-07-13T14:30:46;5.30;;;1.27;;
72127;SDS011;60000;51.030;7.024;2023-07-13T14:33:12;6.03;;;1.30;;
72127;SDS011;60000;51.030;7.024;2023-07-13T14:35:38;5.85;;;1.00;;
72127;SDS011;60000;51.030;7.024;2023-07-13T14:38:03;5.70;;;1.27;;
72127;SDS011;60000;51.030;7.024;2023-07-13T14:40:30;4.95;;;0.70;;
72127;SDS011;60000;51.030;7.024;2023-07-13T14:42:57;5.80;;;1.00;;
72127;SDS011;60000;51.030;7.024;2023-07-13T14:45:23;5.22;;;1.10;;
72127;SDS011;60000;51.030;7.024;2023-07-13T14:47:49;5.03;;;1.38;;
72127;SDS011;60000;51.030;7.024;2023-07-13T14:50:19;4.88;;;1.10;;
72127;SDS011;60000;51.030;7.024;2023-07-13T14:52:46;6.80;;;1.13;;
72127;SDS011;60000;51.030;7.024;2023-07-13T14:55:18;6.15;;;1.10;;
72127;SDS011;60000;51.030;7.024;2023-07-13T14:57:44;5.07;;;1.20;;
72127;SDS011;60000;51.030;7.024;2023-07-13T15:00:17;7.30;;;1.40;;
72127;SDS011;60000;51.030;7.024;2023-07-13T15:02:45;5.95;;;1.38;;
72127;SDS011;60000;51.030;7.024;2023-07-13T15:07:43;6.60;;;1.67;;
72127;SDS011;60000;51.030;7.024;2023-07-13T15:10:24;6.13;;;1.40;;
72127;SDS011;60000;51.030;7.024;2023-07-13T15:12:59;7.10;;;1.17;;
72127;SDS011;60000;51.030;7.024;2023-07-13T15:15:46;5.80;;;1.20;;
72127;SDS011;60000;51.030;7.024;2023-07-13T15:18:14;3.50;;;1.10;;
72127;SDS011;60000;51.030;7.024;2023-07-13T15:20:42;5.20;;;1.40;;
72127;SDS011;60000;51.030;7.024;2023-07-13T15:23:10;6.85;;;1.70;;
72127;SDS011;60000;51.030;7.024;2023-07-13T15:25:36;6.87;;;1.30;;
72127;SDS011;60000;51.030;7.024;2023-07-13T15:28:02;6.43;;;1.23;;
72127;SDS011;60000;51.030;7.024;2023-07-13T15:30:46;4.03;;;1.20;;
72127;SDS011;60000;51.030;7.024;2023-07-13T15:33:17;5.03;;;1.27;;
72127;SDS011;60000;51.030;7.024;2023-07-13T15:35:44;5.95;;;1.70;;